Time;durP1;ratioP1;P1;durP2;ratioP2;P2;SDS_P1;SDS_P2;PMS_P1;PMS_P2;Temp;Humidity;BMP_temperature;BMP_pressure;BME280_temperature;BME280_humidity;BME280_pressure;Samples;Min_cycle;Max_cycle;Signal;HPM_P1;HPM_P2
2022/06/22 00:02:28;;;;;;;;;11.00;8.50;;;;;20.63;51.49;100233.38;5096857;27;45461;-77
2022/06/22 00:05:12;;;;;;;;;10.00;10.00;;;;;20.66;51.46;100242.13;5097467;27;45484;-77
2022/06/22 00:07:42;;;;;;;;;15.75;13.75;;;;;20.68;51.42;100245.59;5096022;27;45487;-77
2022/06/22 00:10:30;;;;;;;;;11.25;9.50;;;;;20.66;51.84;100243.94;5097565;27;47099;-78
2022/06/22 00:12:58;;;;;;;;;10.50;10.00;;;;;20.57;52.10;100237.34;5097252;27;45547;-77
2022/06/22 00:15:40;;;;;;;;;10.50;9.00;;;;;20.36;52.08;100199.38;5096314;27;45395;-77
2022/06/22 00:18:28;;;;;;;;;14.00;12.00;;;;;20.52;52.13;100215.31;5096009;27;45493;-77
2022/06/22 00:20:58;;;;;;;;;11.50;10.75;;;;;20.49;52.32;100220.91;5090372;27;45456;-77
2022/06/22 00:23:25;;;;;;;;;12.00;11.50;;;;;20.39;52.72;100216.16;5096036;27;45423;-78
2022/06/22 00:25:51;;;;;;;;;11.75;11.75;;;;;20.23;52.73;100196.66;5096255;27;45421;-77
2022/06/22 00:28:35;;;;;;;;;14.00;12.75;;;;;20.28;52.87;100207.94;5094911;27;45350;-76
2022/06/22 00:31:23;;;;;;;;;12.25;11.00;;;;;20.28;53.06;100213.31;5096663;27;46574;-77
2022/06/22 00:34:02;;;;;;;;;9.00;8.00;;;;;20.23;52.93;100200.19;5097024;27;45412;-77
2022/06/22 00:36:34;;;;;;;;;12.00;11.25;;;;;20.23;53.18;100205.56;5083214;27;45455;-78
2022/06/22 00:39:21;;;;;;;;;11.25;10.00;;;;;20.24;53.15;100207.28;5075823;27;45497;-77
2022/06/22 00:41:58;;;;;;;;;13.00;13.00;;;;;20.19;53.46;100197.81;5080802;27;46857;-77
2022/06/22 00:44:28;;;;;;;;;12.50;12.50;;;;;20.10;53.61;100198.44;5096767;27;45296;-77
2022/06/22 00:47:02;;;;;;;;;11.50;10.75;;;;;20.11;53.79;100202.84;5100010;27;45234;-77
2022/06/22 00:49:28;;;;;;;;;12.75;11.50;;;;;20.11;53.94;100203.69;5111750;27;44772;-76
2022/06/22 00:51:59;;;;;;;;;18.50;17.50;;;;;20.03;54.06;100201.50;5086109;27;45417;-77
2022/06/22 00:54:28;;;;;;;;;15.25;14.25;;;;;19.95;53.79;100206.53;5096613;27;45386;-80
2022/06/22 00:57:03;;;;;;;;;15.00;15.00;;;;;19.87;54.25;100220.44;5098930;27;45379;-79
2022/06/22 00:59:34;;;;;;;;;13.75;13.00;;;;;19.73;54.54;100198.13;5096349;27;45497;-81
2022/06/22 01:02:31;;;;;;;;;13.75;13.75;;;;;19.79;54.54;100211.16;5092797;27;46016;-82
2022/06/22 01:05:05;;;;;;;;;14.00;14.00;;;;;19.74;54.52;100206.06;5055049;28;45472;-80
2022/06/22 01:07:43;;;;;;;;;19.50;15.75;;;;;19.69;54.83;100209.03;5066428;28;45467;-81
2022/06/22 01:10:55;;;;;;;;;16.25;15.00;;;;;19.50;55.05;100179.00;5060643;28;45484;-81
2022/06/22 01:13:33;;;;;;;;;14.00;13.25;;;;;19.52;54.98;100188.69;5014617;28;45563;-80
2022/06/22 01:16:08;;;;;;;;;17.25;16.25;;;;;19.46;55.25;100204.25;5016065;28;45409;-81
2022/06/22 01:18:40;;;;;;;;;16.00;13.00;;;;;19.47;55.26;100212.22;4999492;28;45540;-80
2022/06/22 01:21:30;;;;;;;;;13.50;13.50;;;;;19.50;55.65;100216.53;5017360;28;45486;-81
2022/06/22 01:24:24;;;;;;;;;15.00;14.25;;;;;19.43;55.35;100201.78;5017020;28;46669;-80
2022/06/22 01:27:14;;;;;;;;;18.50;14.50;;;;;19.49;55.39;100215.63;5013740;28;45621;-80
2022/06/22 01:29:53;;;;;;;;;19.50;18.50;;;;;19.41;55.15;100206.38;5013723;28;45568;-82
2022/06/22 01:32:37;;;;;;;;;16.00;14.00;;;;;19.31;55.40;100190.00;5014887;28;45462;-82
2022/06/22 01:35:14;;;;;;;;;15.50;14.00;;;;;19.34;55.54;100198.72;5015197;28;45665;-81
2022/06/22 01:37:44;;;;;;;;;15.50;14.00;;;;;19.35;55.75;100199.59;5004572;28;45458;-80
2022/06/22 01:40:16;;;;;;;;;14.00;14.00;;;;;19.31;55.74;100212.31;5012103;28;45408;-79
2022/06/22 01:42:48;;;;;;;;;14.00;13.00;;;;;19.26;55.90;100208.19;5027375;28;45622;-80
2022/06/22 01:45:18;;;;;;;;;13.50;11.75;;;;;19.23;55.70;100222.63;5013125;28;45475;-80
2022/06/22 01:48:02;;;;;;;;;14.50;13.50;;;;;19.24;55.78;100227.03;5018526;28;45465;-81
2022/06/22 01:50:48;;;;;;;;;14.25;14.25;;;;;19.24;55.60;100224.38;5074613;28;45401;-81
2022/06/22 01:53:19;;;;;;;;;14.00;14.00;;;;;19.21;55.38;100218.31;5077774;27;45413;-80
2022/06/22 01:56:00;;;;;;;;;12.50;12.25;;;;;19.17;55.62;100198.91;5093726;27;46308;-81
2022/06/22 01:58:41;;;;;;;;;13.75;13.50;;;;;19.26;55.48;100224.28;5082755;27;45363;-81
2022/06/22 02:01:16;;;;;;;;;12.00;12.00;;;;;19.33;55.75;100229.16;5076925;27;45537;-80
2022/06/22 02:04:00;;;;;;;;;15.00;12.75;;;;;19.38;55.42;100244.09;5077353;27;45542;-80
2022/06/22 02:09:49;;;;;;;;;;;;;;;;;;;;;
2022/06/22 02:12:26;;;;;;;;;14.50;13.00;;;;;19.30;55.83;100237.38;5095155;27;67457;-81
2022/06/22 02:15:10;;;;;;;;;14.25;12.50;;;;;19.00;55.72;100195.44;5083935;27;45578;-76
2022/06/22 02:17:39;;;;;;;;;15.00;12.75;;;;;19.00;55.64;100200.81;5096067;27;45568;-78
2022/06/22 02:20:31;;;;;;;;;15.00;14.00;;;;;19.22;56.32;100223.59;5094739;27;45323;-79
2022/06/22 02:23:20;;;;;;;;;13.25;13.25;;;;;19.06;56.51;100217.47;5095068;27;45597;-78
2022/06/22 02:26:15;;;;;;;;;18.25;14.25;;;;;19.14;56.40;100221.38;5094662;27;45470;-83
2022/06/22 02:28:42;;;;;;;;;13.50;13.00;;;;;18.90;56.59;100180.88;5093812;27;46644;-77
2022/06/22 02:31:15;;;;;;;;;17.25;15.00;;;;;18.42;56.38;100081.22;5111643;27;45494;-79
2022/06/22 02:33:46;;;;;;;;;18.50;16.25;;;;;19.19;56.03;100215.72;5093519;27;45521;-77
2022/06/22 02:36:13;;;;;;;;;18.75;16.75;;;;;18.92;55.95;100173.63;5081839;27;45477;-77
2022/06/22 02:38:45;;;;;;;;;14.25;14.25;;;;;18.95;55.96;100173.44;5076478;27;45473;-78
2022/06/22 02:46:52;;;;;;;;;20.25;16.75;;;;;18.32;56.03;100050.63;5105018;27;45417;-80
2022/06/22 02:49:45;;;;;;;;;19.25;16.50;;;;;19.32;56.18;100205.97;5091668;27;46171;-77
2022/06/22 02:52:14;;;;;;;;;14.75;13.75;;;;;18.82;56.05;100114.41;5074139;28;45488;-80
2022/06/22 02:54:46;;;;;;;;;16.25;15.25;;;;;18.80;55.80;100112.78;5073870;27;45408;-77
2022/06/22 02:57:27;;;;;;;;;15.50;15.50;;;;;19.29;56.02;100186.56;5094714;27;45691;-80
2022/06/22 02:59:53;;;;;;;;;14.25;14.25;;;;;19.02;55.77;100140.94;5095092;27;45393;-79
2022/06/22 03:02:26;;;;;;;;;21.00;16.75;;;;;18.35;55.89;100027.19;5096317;27;45371;-80
2022/06/22 03:04:58;;;;;;;;;14.00;13.00;;;;;18.49;55.95;100039.72;5096531;27;45366;-81
2022/06/22 03:07:25;;;;;;;;;13.75;13.75;;;;;19.02;56.22;100131.09;5077759;27;45550;-77
2022/06/22 03:09:52;;;;;;;;;19.00;14.75;;;;;19.18;56.61;100157.78;5111890;27;47853;-78
2022/06/22 03:12:18;;;;;;;;;14.50;14.25;;;;;18.84;56.53;100114.31;5097548;27;45353;-81
2022/06/22 03:15:06;;;;;;;;;16.75;15.75;;;;;18.67;56.85;100087.72;5097769;27;45410;-80
2022/06/22 03:17:38;;;;;;;;;11.50;10.25;;;;;19.07;56.73;100146.84;5075632;27;45595;-80
2022/06/22 03:20:11;;;;;;;;;18.25;16.25;;;;;18.27;56.69;100027.66;5099046;27;45610;-82
2022/06/22 03:22:55;;;;;;;;;13.00;13.00;;;;;18.75;56.78;100104.16;5097992;27;45331;-76
2022/06/22 03:26:03;;;;;;;;;16.75;13.25;;;;;18.52;56.48;100058.25;5097741;27;45423;-82
2022/06/22 03:28:38;;;;;;;;;15.00;15.00;;;;;19.03;57.09;100151.56;5075712;28;45426;-80
2022/06/22 03:31:15;;;;;;;;;14.75;14.50;;;;;18.99;57.13;100152.69;5075438;28;46210;-78
2022/06/22 03:33:53;;;;;;;;;18.00;14.75;;;;;18.29;56.62;100031.13;5072927;28;45477;-78
2022/06/22 03:36:28;;;;;;;;;19.25;15.50;;;;;18.45;56.86;100054.28;5052587;27;45734;-78
2022/06/22 03:38:59;;;;;;;;;15.25;13.75;;;;;18.95;57.24;100154.72;5076725;27;45558;-80
2022/06/22 03:41:28;;;;;;;;;19.25;15.25;;;;;18.91;57.43;100150.50;5058126;28;47794;-77
2022/06/22 03:44:07;;;;;;;;;17.00;15.25;;;;;18.87;57.32;100138.25;5065029;28;45535;-80
2022/06/22 03:46:42;;;;;;;;;14.50;14.00;;;;;18.32;57.00;100061.31;5062134;28;45430;-76
2022/06/22 03:49:13;;;;;;;;;19.25;14.00;;;;;17.98;57.16;99996.50;5074652;28;45383;-79
2022/06/22 03:51:57;;;;;;;;;14.25;13.00;;;;;17.85;57.47;99969.59;5045548;28;46687;-81
2022/06/22 03:54:31;;;;;;;;;18.25;14.50;;;;;18.72;57.49;100134.69;5043095;28;45451;-81
2022/06/22 03:57:01;;;;;;;;;17.75;17.75;;;;;18.52;57.29;100117.13;5071771;28;45574;-78
2022/06/22 03:59:28;;;;;;;;;15.25;13.25;;;;;18.41;57.20;100092.84;5047026;28;45446;-81
2022/06/22 04:01:56;;;;;;;;;13.75;13.75;;;;;17.63;57.43;99986.03;5061863;28;45617;-82
2022/06/22 04:04:24;;;;;;;;;18.50;15.00;;;;;18.36;57.44;100102.97;5075915;27;45435;-81
2022/06/22 04:06:59;;;;;;;;;17.25;15.50;;;;;18.19;57.23;100080.78;5092006;27;45490;-78
2022/06/22 04:09:27;;;;;;;;;17.25;14.75;;;;;18.12;57.41;100071.38;5096664;27;45455;-77
2022/06/22 04:12:00;;;;;;;;;18.50;15.00;;;;;18.70;57.24;100165.16;5113819;27;46474;-81
2022/06/22 04:14:58;;;;;;;;;15.50;14.50;;;;;18.70;57.46;100170.50;5093628;27;45502;-77
2022/06/22 04:17:35;;;;;;;;;20.75;17.00;;;;;18.23;57.39;100094.81;5054336;28;45555;-79
2022/06/22 04:20:09;;;;;;;;;16.00;16.00;;;;;18.60;57.32;100163.03;5037647;28;45694;-77
2022/06/22 04:22:40;;;;;;;;;15.25;14.00;;;;;18.59;57.43;100171.16;5037406;28;45462;-80
2022/06/22 04:25:26;;;;;;;;;16.50;15.25;;;;;18.08;57.43;100093.91;5054164;28;45536;-78
2022/06/22 04:27:54;;;;;;;;;18.50;15.00;;;;;17.84;57.40;100051.59;5054291;28;45431;-81
2022/06/22 04:30:24;;;;;;;;;18.00;16.50;;;;;18.40;57.52;100117.88;5054991;28;45380;-80
2022/06/22 04:33:05;;;;;;;;;7.50;7.25;;;;;18.61;57.45;100156.75;5056084;28;46331;-82
2022/06/22 04:35:42;;;;;;;;;16.00;14.00;;;;;18.71;57.45;100164.22;5036190;28;45456;-77
2022/06/22 04:38:31;;;;;;;;;16.75;14.25;;;;;18.51;56.96;100112.75;5056644;28;45503;-80
2022/06/22 04:41:18;;;;;;;;;14.75;13.50;;;;;18.69;57.17;100145.56;5063414;28;45406;-81
2022/06/22 04:43:46;;;;;;;;;17.25;14.25;;;;;18.74;56.88;100161.34;5060269;28;45392;-80
2022/06/22 04:46:22;;;;;;;;;19.00;18.00;;;;;18.53;56.85;100105.47;5054592;28;45626;-78
2022/06/22 04:48:52;;;;;;;;;17.50;15.50;;;;;18.22;57.21;100060.97;5037092;28;45608;-76
2022/06/22 04:51:25;;;;;;;;;18.00;16.00;;;;;18.71;57.19;100148.16;5053677;28;45615;-77
2022/06/22 04:54:26;;;;;;;;;18.00;16.00;;;;;18.05;56.83;100044.16;5071204;27;45528;-81
2022/06/22 04:56:55;;;;;;;;;14.50;14.00;;;;;18.35;56.80;100098.56;5093006;27;45473;-80
2022/06/22 04:59:25;;;;;;;;;13.25;13.25;;;;;18.17;57.00;100045.22;5095195;27;45459;-81
2022/06/22 05:02:03;;;;;;;;;19.75;17.00;;;;;18.06;56.93;100024.47;5096984;27;45324;-80
2022/06/22 05:04:38;;;;;;;;;22.75;18.50;;;;;18.41;56.54;100087.50;5096985;27;46093;-82
2022/06/22 05:07:23;;;;;;;;;21.25;17.50;;;;;18.77;56.81;100132.56;5096812;27;45279;-81
2022/06/22 05:09:55;;;;;;;;;15.50;13.25;;;;;18.92;56.92;100135.31;5078043;27;45395;-81
2022/06/22 05:12:24;;;;;;;;;18.50;17.00;;;;;18.37;57.22;100064.56;5079722;27;45556;-77
2022/06/22 05:14:56;;;;;;;;;16.75;16.75;;;;;18.82;56.74;100141.16;5095694;27;45559;-76
2022/06/22 05:17:30;;;;;;;;;14.50;14.50;;;;;18.85;57.27;100144.63;5076787;27;45478;-81
2022/06/22 05:20:06;;;;;;;;;21.25;17.25;;;;;18.52;57.00;100089.53;5076340;27;45342;-78
2022/06/22 05:22:34;;;;;;;;;21.25;14.50;;;;;18.76;57.15;100140.69;5074846;27;45352;-78
2022/06/22 05:25:06;;;;;;;;;17.75;16.00;;;;;18.21;57.29;100059.28;5075956;27;45535;-78
2022/06/22 05:27:58;;;;;;;;;17.50;15.75;;;;;18.69;57.06;100142.00;5075809;27;45480;-78
2022/06/22 05:30:24;;;;;;;;;17.00;12.50;;;;;18.49;57.36;100103.09;5075797;27;45358;-79
2022/06/22 05:32:55;;;;;;;;;22.50;20.50;;;;;18.73;56.97;100119.47;5078068;27;45355;-80
2022/06/22 05:35:35;;;;;;;;;20.25;18.75;;;;;18.91;56.35;100129.06;5091708;27;46344;-80
2022/06/22 05:38:06;;;;;;;;;13.75;12.50;;;;;18.83;56.86;100116.13;5098049;27;45412;-81
2022/06/22 05:40:35;;;;;;;;;18.50;16.75;;;;;18.84;56.53;100119.66;5099817;27;45285;-80
2022/06/22 05:43:00;;;;;;;;;13.00;13.00;;;;;18.72;57.23;100112.38;5096366;27;45440;-81
2022/06/22 05:45:38;;;;;;;;;18.50;15.00;;;;;18.75;56.85;100130.94;5097672;27;45791;-81
2022/06/22 05:48:05;;;;;;;;;16.00;16.00;;;;;18.74;56.53;100115.84;5097922;27;45398;-81
2022/06/22 05:50:58;;;;;;;;;18.25;17.00;;;;;18.90;56.41;100138.03;5080254;27;45620;-77
2022/06/22 05:53:30;;;;;;;;;14.75;13.75;;;;;18.97;56.44;100147.44;5077908;27;45375;-80
2022/06/22 05:56:04;;;;;;;;;18.00;16.00;;;;;19.04;55.93;100145.25;5077318;27;46184;-80
2022/06/22 05:59:07;;;;;;;;;18.50;17.75;;;;;18.94;56.20;100122.69;5096421;27;45426;-78
2022/06/22 06:01:38;;;;;;;;;21.50;18.50;;;;;18.91;56.49;100130.91;5096308;27;45493;-77
2022/06/22 06:04:20;;;;;;;;;17.00;17.00;;;;;18.85;56.63;100136.59;5096855;27;45464;-77
2022/06/22 06:06:48;;;;;;;;;21.75;16.50;;;;;18.80;57.27;100131.53;5094843;27;45873;-78
2022/06/22 06:09:19;;;;;;;;;18.00;18.00;;;;;18.67;57.14;100123.38;5091910;27;45472;-77
2022/06/22 06:12:07;;;;;;;;;16.00;16.00;;;;;18.69;57.40;100126.84;5073845;28;45357;-82
2022/06/22 06:14:39;;;;;;;;;20.25;16.00;;;;;18.60;56.73;100130.06;5077007;27;45340;-80
2022/06/22 06:17:16;;;;;;;;;17.00;15.00;;;;;18.73;57.19;100132.84;5075985;27;45438;-80
2022/06/22 06:19:48;;;;;;;;;19.00;18.25;;;;;18.51;56.76;100090.47;5086437;27;45322;-80
2022/06/22 06:22:13;;;;;;;;;18.00;17.00;;;;;18.86;57.09;100149.94;5097760;27;45478;-80
2022/06/22 06:27:34;;;;;;;;;19.25;18.00;;;;;18.86;56.71;100147.25;5095686;27;45314;-81
2022/06/22 06:27:35;;;;;;;;;22.75;19.50;;;;;18.84;56.97;100146.44;5093507;27;45564;-78
2022/06/22 06:30:15;;;;;;;;;24.50;18.50;;;;;18.79;57.06;100143.19;5092411;27;45371;-76
2022/06/22 06:32:47;;;;;;;;;16.00;14.00;;;;;18.78;57.24;100138.78;5094495;27;45468;-78
2022/06/22 06:35:26;;;;;;;;;16.25;14.00;;;;;18.76;57.23;100146.03;5095353;27;45437;-77
2022/06/22 06:38:12;;;;;;;;;13.00;13.00;;;;;18.69;57.51;100140.22;5101518;27;46295;-80
2022/06/22 06:40:42;;;;;;;;;19.25;18.00;;;;;18.58;57.13;100138.16;5113012;27;45296;-79
2022/06/22 06:43:13;;;;;;;;;19.00;16.00;;;;;18.63;57.35;100144.13;5093888;27;45381;-78
2022/06/22 06:45:41;;;;;;;;;21.00;18.25;;;;;18.62;56.77;100139.72;5090948;27;45620;-78
2022/06/22 06:48:15;;;;;;;;;18.75;18.00;;;;;18.74;56.61;100142.63;5095062;27;46271;-81
2022/06/22 06:50:47;;;;;;;;;23.50;20.75;;;;;18.69;56.64;100128.63;5092598;27;45453;-79
2022/06/22 06:53:41;;;;;;;;;20.00;20.00;;;;;18.77;56.52;100156.66;5087253;27;45402;-78
2022/06/22 06:56:14;;;;;;;;;14.00;13.00;;;;;18.79;57.33;100156.56;5103258;27;45394;-78
2022/06/22 06:58:46;;;;;;;;;23.75;19.00;;;;;18.81;57.17;100146.63;5082004;27;47147;-79
2022/06/22 07:01:18;;;;;;;;;17.50;15.75;;;;;18.78;56.80;100149.47;5089347;27;45599;-79
2022/06/22 07:03:44;;;;;;;;;16.75;15.25;;;;;18.82;56.99;100145.66;5086345;27;45443;-77
2022/06/22 07:06:10;;;;;;;;;19.50;15.25;;;;;18.75;57.00;100139.84;5087784;27;45327;-80
2022/06/22 07:08:47;;;;;;;;;15.00;15.00;;;;;18.78;56.78;100141.44;5083725;27;46021;-79
2022/06/22 07:11:31;;;;;;;;;18.75;17.25;;;;;18.64;56.73;100111.06;5092006;27;45610;-82
2022/06/22 07:14:03;;;;;;;;;17.50;16.25;;;;;18.90;56.85;100148.75;5086698;27;45623;-79
2022/06/22 07:16:28;;;;;;;;;20.50;18.75;;;;;18.96;56.58;100153.75;5089272;27;45663;-81
2022/06/22 07:19:03;;;;;;;;;18.00;17.75;;;;;19.12;56.36;100155.50;5092210;27;46275;-78
2022/06/22 07:21:34;;;;;;;;;17.50;17.50;;;;;19.14;56.58;100153.56;5092212;27;45931;-82
2022/06/22 07:24:04;;;;;;;;;15.75;14.75;;;;;19.06;56.18;100121.06;5093730;27;45487;-82
2022/06/22 07:26:53;;;;;;;;;16.75;16.75;;;;;19.35;55.50;100149.53;5085771;27;45328;-80
2022/06/22 07:29:28;;;;;;;;;17.75;15.50;;;;;19.33;55.25;100135.38;5080186;27;45598;-82
2022/06/22 07:32:17;;;;;;;;;23.75;20.75;;;;;19.33;56.00;100127.34;5091234;27;45549;-81
2022/06/22 07:35:02;;;;;;;;;19.25;16.25;;;;;19.34;55.49;100153.19;5087559;27;45350;-81
2022/06/22 07:37:35;;;;;;;;;21.75;18.75;;;;;19.32;55.27;100159.59;5087281;27;45391;-80
2022/06/22 07:40:15;;;;;;;;;16.00;16.00;;;;;19.40;55.63;100161.78;5079901;27;45475;-81
2022/06/22 07:42:41;;;;;;;;;20.75;17.75;;;;;19.35;55.10;100149.53;5096436;27;45386;-80
2022/06/22 07:45:13;;;;;;;;;21.50;19.00;;;;;19.44;55.35;100160.63;5095863;27;45542;-82
2022/06/22 07:47:46;;;;;;;;;15.25;15.25;;;;;19.49;55.07;100154.00;5093733;27;45780;-80
2022/06/22 07:50:24;;;;;;;;;17.25;16.75;;;;;19.57;55.10;100161.59;5108912;27;46307;-81
2022/06/22 07:52:57;;;;;;;;;20.50;19.75;;;;;19.66;54.80;100174.38;5099342;27;45347;-81
2022/06/22 07:55:34;;;;;;;;;20.00;19.00;;;;;19.74;54.59;100164.97;5111540;27;45402;-79
2022/06/22 07:58:19;;;;;;;;;21.75;21.00;;;;;19.95;54.24;100179.72;5095984;27;45501;-79
2022/06/22 08:00:48;;;;;;;;;24.25;20.00;;;;;20.11;54.01;100160.78;5088802;27;45584;-79
2022/06/22 08:03:26;;;;;;;;;21.00;18.50;;;;;20.39;53.58;100157.13;5096408;27;45503;-80
2022/06/22 08:05:56;;;;;;;;;21.50;15.75;;;;;20.74;52.69;100161.94;5090709;27;45482;-80
2022/06/22 08:08:30;;;;;;;;;13.00;13.00;;;;;21.20;52.03;100162.38;5096049;27;45502;-79
2022/06/22 08:11:34;;;;;;;;;13.75;12.50;;;;;21.81;49.85;100174.06;5086317;27;47009;-78
2022/06/22 08:14:10;;;;;;;;;24.00;17.50;;;;;22.37;48.96;100170.00;5080530;27;45324;-79
2022/06/22 08:16:43;;;;;;;;;16.25;14.75;;;;;22.80;47.73;100172.06;5078249;27;45403;-78
2022/06/22 08:19:09;;;;;;;;;20.00;16.00;;;;;22.95;46.66;100164.63;5079017;27;45486;-80
2022/06/22 08:21:41;;;;;;;;;21.75;20.50;;;;;23.17;46.16;100182.72;5089100;27;45399;-81
2022/06/22 08:24:09;;;;;;;;;15.25;13.50;;;;;23.47;45.98;100180.38;5087016;27;45401;-79
2022/06/22 08:26:35;;;;;;;;;23.25;19.75;;;;;23.94;45.01;100189.16;5098722;27;45539;-79
2022/06/22 08:29:01;;;;;;;;;17.00;17.00;;;;;24.15;44.66;100178.44;5096859;27;45573;-77
2022/06/22 08:31:36;;;;;;;;;20.75;18.50;;;;;24.19;44.21;100179.06;5090847;27;46232;-78
2022/06/22 08:34:07;;;;;;;;;21.00;19.50;;;;;24.26;43.15;100178.41;5094324;27;45463;-79
2022/06/22 08:36:42;;;;;;;;;18.75;16.75;;;;;24.51;43.67;100172.78;5096809;27;45366;-81
2022/06/22 08:39:33;;;;;;;;;15.75;15.75;;;;;24.65;43.27;100162.53;5126831;27;45394;-80
2022/06/22 08:42:21;;;;;;;;;18.00;15.50;;;;;24.83;42.98;100172.75;5095891;27;46396;-80
2022/06/22 08:44:52;;;;;;;;;20.25;19.25;;;;;25.11;42.71;100173.03;5080298;27;45542;-82
2022/06/22 08:47:36;;;;;;;;;16.50;16.50;;;;;25.59;41.76;100169.72;5093449;27;45459;-81
2022/06/22 08:50:17;;;;;;;;;16.50;16.50;;;;;25.74;40.79;100170.19;5093788;27;45616;-81
2022/06/22 08:53:14;;;;;;;;;16.50;16.50;;;;;25.78;40.47;100159.94;5095506;27;46120;-79
2022/06/22 08:55:49;;;;;;;;;20.00;19.50;;;;;25.86;40.42;100158.25;5036459;28;45507;-79
2022/06/22 08:58:37;;;;;;;;;18.25;16.25;;;;;26.72;39.83;100167.56;5051365;28;45634;-79
2022/06/22 09:01:12;;;;;;;;;19.25;18.25;;;;;27.33;38.54;100160.88;5049715;28;45505;-80
2022/06/22 09:04:06;;;;;;;;;19.25;15.25;;;;;28.17;38.24;100157.09;5052639;28;45574;-78
2022/06/22 09:06:50;;;;;;;;;19.25;18.25;;;;;28.13;36.43;100166.56;5053046;28;45508;-80
2022/06/22 09:09:42;;;;;;;;;18.50;17.75;;;;;27.40;37.26;100159.25;5051725;28;45431;-79
2022/06/22 09:12:22;;;;;;;;;15.75;15.75;;;;;27.18;38.41;100168.63;4973536;28;45555;-78
2022/06/22 09:15:09;;;;;;;;;17.50;17.00;;;;;27.05;38.85;100176.22;4973617;28;46142;-79
2022/06/22 09:18:08;;;;;;;;;18.75;17.00;;;;;26.75;38.90;100176.28;4967257;28;45545;-79
2022/06/22 09:20:38;;;;;;;;;17.75;16.75;;;;;26.45;39.62;100160.16;4971904;28;45545;-77
2022/06/22 09:23:20;;;;;;;;;18.00;16.75;;;;;26.22;40.18;100169.44;4964019;28;45391;-79
2022/06/22 09:25:50;;;;;;;;;19.75;18.25;;;;;26.11;40.57;100166.00;4973086;28;46297;-79
2022/06/22 09:28:27;;;;;;;;;20.75;18.75;;;;;25.93;40.54;100160.41;4971925;28;45444;-79
2022/06/22 09:31:11;;;;;;;;;17.00;15.25;;;;;25.66;40.48;100183.53;4971250;28;45545;-79
2022/06/22 09:34:18;;;;;;;;;17.75;17.00;;;;;25.28;41.54;100191.34;4981588;28;45461;-78
2022/06/22 09:36:58;;;;;;;;;20.75;19.25;;;;;24.88;42.07;100196.66;4982739;28;47272;-78
2022/06/22 09:39:45;;;;;;;;;19.00;17.50;;;;;24.86;42.79;100186.00;4999855;28;45558;-79
2022/06/22 09:42:31;;;;;;;;;17.00;16.25;;;;;24.93;42.51;100181.78;5001691;28;45609;-78
2022/06/22 09:45:21;;;;;;;;;18.50;17.25;;;;;25.04;43.23;100179.97;5003228;28;45465;-79
2022/06/22 09:47:46;;;;;;;;;19.25;17.00;;;;;25.18;43.26;100187.75;5007853;28;46280;-79
2022/06/22 09:50:44;;;;;;;;;20.50;19.00;;;;;25.38;43.13;100171.63;5078919;27;45387;-78
2022/06/22 09:53:12;;;;;;;;;17.00;16.25;;;;;25.50;42.92;100178.66;5077293;27;45590;-78
2022/06/22 09:58:36;;;;;;;;;22.00;19.75;;;;;25.38;42.54;100182.47;5089906;27;45348;-81
2022/06/22 10:01:27;;;;;;;;;20.25;19.00;;;;;25.34;43.15;100185.44;5090099;27;45535;-81
2022/06/22 10:04:32;;;;;;;;;19.25;17.25;;;;;25.66;41.67;100179.00;5081950;27;45687;-80
2022/06/22 10:07:25;;;;;;;;;16.25;15.25;;;;;26.46;42.31;100172.72;5095967;27;45687;-81
2022/06/22 10:10:02;;;;;;;;;18.00;15.25;;;;;27.11;39.39;100179.19;5079804;27;46034;-82
2022/06/22 10:12:33;;;;;;;;;16.00;15.00;;;;;27.58;38.66;100182.91;5092797;27;45424;-80
2022/06/22 10:15:17;;;;;;;;;20.50;18.50;;;;;27.83;38.07;100175.88;5090442;27;45556;-80
2022/06/22 10:17:58;;;;;;;;;20.00;17.50;;;;;28.39;37.27;100170.38;5077821;27;45315;-81
2022/06/22 10:20:40;;;;;;;;;22.50;20.50;;;;;29.03;36.12;100161.03;5081187;27;45421;-80
2022/06/22 10:23:26;;;;;;;;;17.00;16.00;;;;;29.62;35.34;100151.31;5090833;27;45329;-80
2022/06/22 10:26:12;;;;;;;;;9.50;6.75;;;;;30.36;34.21;100155.06;5090576;27;45484;-79
2022/06/22 10:29:08;;;;;;;;;14.00;14.00;;;;;30.93;33.57;100156.06;5085408;27;45279;-79
2022/06/22 10:32:08;;;;;;;;;15.00;14.00;;;;;31.07;33.54;100158.13;5087811;27;45746;-80
2022/06/22 10:34:45;;;;;;;;;18.00;17.00;;;;;31.42;33.14;100155.13;5097485;27;44790;-78
2022/06/22 10:37:48;;;;;;;;;20.00;19.00;;;;;31.32;33.27;100147.13;5099240;27;45593;-78
2022/06/22 10:46:29;;;;;;;;;14.50;13.00;;;;;31.83;33.19;100144.03;5081124;27;45413;-78
2022/06/22 10:48:58;;;;;;;;;14.00;13.50;;;;;32.33;34.77;100128.16;5084807;27;45658;-79
2022/06/22 10:51:41;;;;;;;;;17.00;14.75;;;;;32.66;32.88;100115.06;5088783;27;45537;-79
2022/06/22 10:54:36;;;;;;;;;11.25;10.75;;;;;33.25;33.45;100116.13;5099109;27;47573;-81
2022/06/22 10:57:05;;;;;;;;;13.50;11.50;;;;;33.49;31.26;100120.44;5066117;28;45424;-81
2022/06/22 10:59:52;;;;;;;;;15.25;14.75;;;;;33.61;31.71;100109.84;5044892;28;45469;-80
2022/06/22 11:02:35;;;;;;;;;14.50;12.00;;;;;33.93;31.00;100116.78;5062280;28;45519;-82
2022/06/22 11:05:31;;;;;;;;;8.75;8.75;;;;;33.21;32.88;100123.06;5068349;28;46851;-80
2022/06/22 11:08:29;;;;;;;;;12.50;11.00;;;;;33.29;32.76;100114.72;5057229;28;45518;-79
2022/06/22 11:11:00;;;;;;;;;8.00;8.00;;;;;32.79;34.07;100124.50;5005068;28;45609;-80
2022/06/22 11:13:47;;;;;;;;;11.50;9.50;;;;;32.20;35.37;100126.88;5005178;28;45489;-80
2022/06/22 11:16:50;;;;;;;;;11.00;9.75;;;;;31.21;36.55;100137.44;5001155;28;45569;-81
2022/06/22 11:19:51;;;;;;;;;12.00;10.50;;;;;30.83;37.16;100129.00;5005072;28;45579;-80
2022/06/22 11:22:32;;;;;;;;;9.50;9.50;;;;;30.19;38.80;100129.69;5004820;28;45521;-80
2022/06/22 11:25:06;;;;;;;;;10.25;10.25;;;;;29.81;39.06;100133.88;4988409;28;45585;-81
2022/06/22 11:30:51;;;;;;;;;12.25;11.00;;;;;28.64;41.36;100147.84;5002940;28;45389;-80
2022/06/22 11:33:29;;;;;;;;;12.25;10.00;;;;;28.19;41.84;100156.94;5013530;28;45565;-80
2022/06/22 11:36:01;;;;;;;;;12.75;12.75;;;;;27.58;43.07;100156.59;5034430;28;45413;-87
2022/06/22 11:38:38;;;;;;;;;13.00;13.00;;;;;26.84;44.90;100122.19;5007621;28;46165;-80
2022/06/22 11:41:26;;;;;;;;;13.50;12.00;;;;;26.75;46.04;100149.19;5023537;28;45466;-79
2022/06/22 11:44:25;;;;;;;;;12.50;10.50;;;;;26.57;45.88;100150.88;5043257;28;45086;-80
2022/06/22 11:46:57;;;;;;;;;9.50;9.50;;;;;26.44;46.54;100150.34;5045262;27;45574;-81
2022/06/22 11:49:23;;;;;;;;;11.75;11.75;;;;;26.45;46.19;100152.03;5081172;27;47434;-81
2022/06/22 11:51:56;;;;;;;;;12.00;11.50;;;;;26.18;46.94;100148.22;5085204;27;45576;-78
2022/06/22 11:54:47;;;;;;;;;9.50;9.50;;;;;25.92;47.54;100148.72;5086822;27;45547;-79
2022/06/22 11:57:50;;;;;;;;;11.00;10.50;;;;;25.65;48.25;100161.03;5081719;27;45524;-77
2022/06/22 12:00:27;;;;;;;;;14.00;12.00;;;;;25.40;48.68;100148.00;5088543;27;45399;-80
2022/06/22 12:03:29;;;;;;;;;12.25;11.75;;;;;25.27;49.41;100156.34;5094397;27;45632;-82
2022/06/22 12:06:01;;;;;;;;;12.00;12.00;;;;;25.12;49.89;100150.44;5079988;27;45540;-82
2022/06/22 12:08:49;;;;;;;;;15.75;12.25;;;;;25.04;49.98;100161.91;5091494;27;45587;-81
2022/06/22 12:11:23;;;;;;;;;10.50;10.50;;;;;25.07;50.73;100169.75;5089419;27;45453;-82
2022/06/22 12:17:48;;;;;;;;;8.00;8.00;;;;;24.60;51.42;100142.31;5092348;27;45494;-81
2022/06/22 12:20:20;;;;;;;;;10.50;9.00;;;;;24.68;52.08;100174.91;5088773;27;45634;-80
2022/06/22 12:23:20;;;;;;;;;10.00;10.00;;;;;24.60;51.84;100159.38;5084526;27;45472;-81
2022/06/22 12:25:56;;;;;;;;;13.50;13.50;;;;;24.82;51.63;100179.13;5080497;27;45536;-81
2022/06/22 12:28:42;;;;;;;;;11.75;11.75;;;;;25.00;51.75;100179.38;5091066;27;45397;-81